createdAt,value
2019-01-24T00:00:25.005Z,43.83
2019-01-24T00:02:53.653Z,52.10
2019-01-24T00:05:22.140Z,46.97
2019-01-24T00:07:50.621Z,46.07
2019-01-24T00:10:19.099Z,49.87
2019-01-24T00:12:47.585Z,51.70
2019-01-24T00:15:16.305Z,53.73
2019-01-24T00:17:44.880Z,42.17
2019-01-24T00:20:16.086Z,48.00
2019-01-24T00:22:45.148Z,48.60
2019-01-24T00:25:13.958Z,43.73
2019-01-24T00:27:42.548Z,50.33
2019-01-24T00:30:17.583Z,49.83
2019-01-24T00:32:46.087Z,50.83
2019-01-24T00:35:14.960Z,44.53
2019-01-24T00:37:43.511Z,46.60
2019-01-24T00:40:15.242Z,47.47
2019-01-24T00:42:43.747Z,48.73
2019-01-24T00:45:12.869Z,47.60
2019-01-24T00:47:41.537Z,49.53
2019-01-24T00:50:14.468Z,44.67
2019-01-24T00:52:43.133Z,52.27
2019-01-24T00:55:13.951Z,38.50
2019-01-24T00:57:42.807Z,45.30
2019-01-24T01:00:14.920Z,46.90
2019-01-24T01:02:43.481Z,42.03
2019-01-24T01:05:13.394Z,48.83
2019-01-24T01:07:42.238Z,56.30
2019-01-24T01:10:12.922Z,45.20
2019-01-24T01:12:41.491Z,45.50
2019-01-24T01:15:13.083Z,43.80
2019-01-24T01:17:42.018Z,39.00
2019-01-24T01:20:16.289Z,46.90
2019-01-24T01:22:44.861Z,41.20
2019-01-24T01:25:14.051Z,44.17
2019-01-24T01:27:42.611Z,38.70
2019-01-24T01:30:14.264Z,40.00
2019-01-24T01:32:43.002Z,45.77
2019-01-24T01:35:12.632Z,45.07
2019-01-24T01:37:41.119Z,48.17
2019-01-24T01:40:15.079Z,47.23
2019-01-24T01:42:43.575Z,40.87
2019-01-24T01:45:17.759Z,45.23
2019-01-24T01:47:46.310Z,46.77
2019-01-24T01:50:17.120Z,44.87
2019-01-24T01:52:45.646Z,48.97
2019-01-24T01:55:14.371Z,57.73
2019-01-24T01:57:42.850Z,42.70
2019-01-24T02:00:17.207Z,49.27
2019-01-24T02:02:45.750Z,56.90
2019-01-24T02:05:14.404Z,56.17
2019-01-24T02:07:42.885Z,45.57
2019-01-24T02:10:22.564Z,53.87
2019-01-24T02:12:51.788Z,47.13
2019-01-24T02:15:20.817Z,43.80
2019-01-24T02:17:50.999Z,39.90
2019-01-24T02:20:21.939Z,51.73
2019-01-24T02:22:51.051Z,45.43
2019-01-24T02:25:19.618Z,49.97
2019-01-24T02:27:48.086Z,52.57
2019-01-24T02:30:19.645Z,46.13
2019-01-24T02:32:48.183Z,45.10
2019-01-24T02:35:16.766Z,55.30
2019-01-24T02:37:45.252Z,49.90
2019-01-24T02:40:13.991Z,50.53
2019-01-24T02:42:42.486Z,43.77
2019-01-24T02:45:24.557Z,52.73
2019-01-24T02:47:53.163Z,48.13
2019-01-24T02:50:25.630Z,42.33
2019-01-24T02:52:54.166Z,54.00
2019-01-24T02:55:22.737Z,48.30
2019-01-24T02:57:51.245Z,40.87
2019-01-24T03:00:24.018Z,49.10
2019-01-24T03:02:52.472Z,58.10
2019-01-24T03:05:22.722Z,45.53
2019-01-24T03:07:51.577Z,50.33
2019-01-24T03:10:20.127Z,45.13
2019-01-24T03:12:48.749Z,46.07
2019-01-24T03:15:19.181Z,46.13
2019-01-24T03:17:47.646Z,47.23
2019-01-24T03:20:17.291Z,42.20
2019-01-24T03:22:46.128Z,43.33
2019-01-24T03:25:16.390Z,40.67
2019-01-24T03:27:44.921Z,45.63
2019-01-24T03:30:18.438Z,42.90
2019-01-24T03:32:47.003Z,47.47
2019-01-24T03:35:17.835Z,44.50
2019-01-24T03:37:46.440Z,46.10
2019-01-24T03:40:15.992Z,43.00
2019-01-24T03:42:44.464Z,37.13
2019-01-24T03:45:15.301Z,44.80
2019-01-24T03:47:43.835Z,40.27
2019-01-24T03:50:17.682Z,43.90
2019-01-24T03:52:46.289Z,45.27
2019-01-24T03:55:17.201Z,61.93
2019-01-24T03:57:45.741Z,42.07
2019-01-24T04:00:19.759Z,45.93
2019-01-24T04:02:48.554Z,42.00
2019-01-24T04:05:18.090Z,43.53
2019-01-24T04:07:46.573Z,47.63
2019-01-24T04:10:18.389Z,42.13
2019-01-24T04:12:46.951Z,42.33
2019-01-24T04:15:20.926Z,42.87
2019-01-24T04:17:51.035Z,46.53
2019-01-24T04:20:19.893Z,45.30
2019-01-24T04:22:48.363Z,43.87
2019-01-24T04:25:16.931Z,42.73
2019-01-24T04:27:45.413Z,48.90
2019-01-24T04:30:19.045Z,55.07
2019-01-24T04:32:47.668Z,44.87
2019-01-24T04:35:19.908Z,52.80
2019-01-24T04:37:46.998Z,53.43
2019-01-24T04:40:17.452Z,56.53
2019-01-24T04:42:46.067Z,50.40
2019-01-24T04:45:16.108Z,46.20
2019-01-24T04:47:44.578Z,50.23
2019-01-24T04:50:15.001Z,54.33
2019-01-24T04:52:43.635Z,56.37
2019-01-24T04:55:14.274Z,52.97
2019-01-24T04:57:42.829Z,53.97
2019-01-24T05:00:16.911Z,46.23
2019-01-24T05:02:45.384Z,45.60
2019-01-24T05:05:13.947Z,49.23
2019-01-24T05:07:42.448Z,52.73
2019-01-24T05:10:10.999Z,53.00
2019-01-24T05:12:39.475Z,51.73
2019-01-24T05:15:08.303Z,51.60
2019-01-24T05:17:36.789Z,45.77
2019-01-24T05:20:08.610Z,54.03
2019-01-24T05:22:37.082Z,52.67
2019-01-24T05:25:09.328Z,57.13
2019-01-24T05:27:37.853Z,64.37
2019-01-24T05:30:12.267Z,53.73
2019-01-24T05:32:40.782Z,50.80
2019-01-24T05:35:09.883Z,49.93
2019-01-24T05:37:38.372Z,40.80
2019-01-24T05:40:08.894Z,52.83
2019-01-24T05:42:37.374Z,51.90
2019-01-24T05:45:08.888Z,45.80
2019-01-24T05:47:37.395Z,54.63
2019-01-24T05:50:11.043Z,57.57
2019-01-24T05:52:39.533Z,45.90
2019-01-24T05:55:10.327Z,46.17
2019-01-24T05:57:38.816Z,47.53
2019-01-24T06:00:10.544Z,47.97
2019-01-24T06:02:39.049Z,46.80
2019-01-24T06:05:09.874Z,50.40
2019-01-24T06:07:38.357Z,42.37
2019-01-24T06:10:30.326Z,46.73
2019-01-24T06:12:58.808Z,47.87
2019-01-24T06:15:27.292Z,46.90
2019-01-24T06:17:55.806Z,48.50
2019-01-24T06:20:24.265Z,46.97
2019-01-24T06:22:52.771Z,43.60
2019-01-24T06:25:21.257Z,44.37
2019-01-24T06:27:49.763Z,50.50
2019-01-24T06:30:20.180Z,43.97
2019-01-24T06:32:48.668Z,49.83
2019-01-24T06:35:17.220Z,51.50
2019-01-24T06:37:45.715Z,53.53
2019-01-24T06:40:16.213Z,54.27
2019-01-24T06:42:44.706Z,43.03
2019-01-24T06:45:21.665Z,47.07
2019-01-24T06:47:50.160Z,54.53
2019-01-24T06:50:19.682Z,44.63
2019-01-24T06:52:48.173Z,41.70
2019-01-24T06:55:19.738Z,43.70
2019-01-24T06:57:48.229Z,41.33
2019-01-24T07:00:18.429Z,47.07
2019-01-24T07:02:46.984Z,45.60
2019-01-24T07:05:15.636Z,42.77
2019-01-24T07:07:44.122Z,48.27
2019-01-24T07:10:18.185Z,52.10
2019-01-24T07:12:46.684Z,47.23
2019-01-24T07:15:17.594Z,43.57
2019-01-24T07:17:46.086Z,43.03
2019-01-24T07:20:16.390Z,43.33
2019-01-24T07:22:44.902Z,43.33
2019-01-24T07:25:16.622Z,45.50
2019-01-24T07:27:45.123Z,38.67
2019-01-24T07:30:20.699Z,41.37
2019-01-24T07:32:49.474Z,40.27
2019-01-24T07:35:19.179Z,38.83
2019-01-24T07:37:48.020Z,42.20
2019-01-24T07:40:20.552Z,43.90
2019-01-24T07:42:49.721Z,35.93
2019-01-24T07:45:29.831Z,41.03
2019-01-24T07:47:58.336Z,50.50
2019-01-24T07:50:26.887Z,39.93
2019-01-24T07:52:55.409Z,38.53
2019-01-24T07:55:23.981Z,34.23
2019-01-24T07:57:52.475Z,36.23
2019-01-24T08:00:28.867Z,34.40
2019-01-24T08:02:57.434Z,36.93
2019-01-24T08:05:28.144Z,38.70
2019-01-24T08:07:56.646Z,30.87
2019-01-24T08:10:25.180Z,30.73
2019-01-24T08:12:53.952Z,38.63
2019-01-24T08:15:23.469Z,40.10
2019-01-24T08:17:52.108Z,37.50
2019-01-24T08:20:22.724Z,35.40
2019-01-24T08:22:51.273Z,36.50
2019-01-24T08:25:19.808Z,37.77
2019-01-24T08:27:48.314Z,31.10
2019-01-24T08:30:19.385Z,32.53
2019-01-24T08:32:47.868Z,37.60
2019-01-24T08:35:17.092Z,31.40
2019-01-24T08:37:45.651Z,36.33
2019-01-24T08:40:19.304Z,33.17
2019-01-24T08:42:47.802Z,36.10
2019-01-24T08:45:16.711Z,35.77
2019-01-24T08:47:45.344Z,30.80
2019-01-24T08:50:18.977Z,35.30
2019-01-24T08:52:47.538Z,33.30
2019-01-24T08:55:19.219Z,39.33
2019-01-24T08:57:47.776Z,29.37
2019-01-24T09:00:18.808Z,39.27
2019-01-24T09:02:48.439Z,40.13
2019-01-24T09:05:16.980Z,36.17
2019-01-24T09:07:45.618Z,29.30
2019-01-24T09:10:19.812Z,32.57
2019-01-24T09:12:48.294Z,31.33
2019-01-24T09:15:16.772Z,39.77
2019-01-24T09:17:45.324Z,34.23
2019-01-24T09:20:16.503Z,41.80
2019-01-24T09:22:46.530Z,34.93
2019-01-24T09:25:15.340Z,34.90
2019-01-24T09:27:43.910Z,33.67
2019-01-24T09:30:20.913Z,35.67
2019-01-24T09:32:49.421Z,28.90
2019-01-24T09:35:18.169Z,33.87
2019-01-24T09:37:46.667Z,27.73
2019-01-24T09:40:20.147Z,29.37
2019-01-24T09:42:48.649Z,36.23
2019-01-24T09:45:25.790Z,34.90
2019-01-24T09:47:55.726Z,35.77
2019-01-24T09:50:25.953Z,36.03
2019-01-24T09:52:54.439Z,37.27
2019-01-24T09:55:22.921Z,28.77
2019-01-24T09:57:51.557Z,32.20
2019-01-24T10:00:28.263Z,34.23
2019-01-24T10:02:57.006Z,27.17
2019-01-24T10:05:25.554Z,27.87
2019-01-24T10:07:54.621Z,34.87
2019-01-24T10:10:27.815Z,32.23
2019-01-24T10:12:57.375Z,28.60
2019-01-24T10:15:26.004Z,27.53
2019-01-24T10:17:54.565Z,28.57
2019-01-24T10:20:25.190Z,35.67
2019-01-24T10:22:53.904Z,37.80
2019-01-24T10:25:25.118Z,28.20
2019-01-24T10:27:53.610Z,28.40
2019-01-24T10:30:23.713Z,39.13
2019-01-24T10:32:52.544Z,33.63
2019-01-24T10:35:21.028Z,34.10
2019-01-24T10:37:49.559Z,31.77
2019-01-24T10:40:27.284Z,35.70
2019-01-24T10:42:56.003Z,35.87
2019-01-24T10:45:24.470Z,31.73
2019-01-24T10:47:54.131Z,35.57
2019-01-24T10:50:24.744Z,44.75
2019-01-24T10:52:53.245Z,29.53
2019-01-24T10:55:23.670Z,35.73
2019-01-24T10:57:53.395Z,33.90
2019-01-24T11:00:33.644Z,33.90
2019-01-24T11:03:04.089Z,31.60
2019-01-24T11:05:32.912Z,34.20
2019-01-24T11:08:01.453Z,38.00
2019-01-24T11:10:29.937Z,35.40
2019-01-24T11:12:58.450Z,37.47
2019-01-24T11:15:28.439Z,33.97
2019-01-24T11:17:56.950Z,29.53
2019-01-24T11:20:25.418Z,39.88
2019-01-24T11:22:53.912Z,38.73
2019-01-24T11:25:26.669Z,34.70
2019-01-24T11:27:55.408Z,35.50
2019-01-24T11:30:28.833Z,31.70
2019-01-24T11:32:57.327Z,45.07
2019-01-24T11:35:28.793Z,30.40
2019-01-24T11:37:57.477Z,40.67
2019-01-24T11:40:26.088Z,36.53
2019-01-24T11:42:54.856Z,36.77
2019-01-24T11:45:26.361Z,37.77
2019-01-24T11:47:54.876Z,36.67
2019-01-24T11:50:23.419Z,36.60
2019-01-24T11:52:52.004Z,37.43
2019-01-24T11:55:21.720Z,38.90
2019-01-24T11:57:50.275Z,37.03
2019-01-24T12:00:29.222Z,36.57
2019-01-24T12:02:57.798Z,37.53
2019-01-24T12:05:26.303Z,39.97
2019-01-24T12:07:54.825Z,36.17
2019-01-24T12:10:28.654Z,41.50
2019-01-24T12:12:57.169Z,49.33
2019-01-24T12:15:28.226Z,46.90
2019-01-24T12:17:56.785Z,46.73
2019-01-24T12:20:26.499Z,44.37
2019-01-24T12:22:54.989Z,45.00
2019-01-24T12:25:23.606Z,45.97
2019-01-24T12:27:52.098Z,58.03
2019-01-24T12:30:34.270Z,59.63
2019-01-24T12:33:03.517Z,59.50
2019-01-24T12:35:32.067Z,53.13
2019-01-24T12:38:00.843Z,53.40
2019-01-24T12:40:29.374Z,57.20
2019-01-24T12:42:57.876Z,66.50
2019-01-24T12:45:31.595Z,54.17
2019-01-24T12:48:00.117Z,59.97
2019-01-24T12:50:28.592Z,58.17
2019-01-24T12:52:57.091Z,60.13
2019-01-24T12:55:25.628Z,58.17
2019-01-24T12:57:54.191Z,62.30
2019-01-24T13:00:28.356Z,57.37
2019-01-24T13:02:57.821Z,64.20
2019-01-24T13:05:26.296Z,58.13
2019-01-24T13:07:54.773Z,62.17
2019-01-24T13:10:26.376Z,58.00
2019-01-24T13:12:54.861Z,58.93
2019-01-24T13:15:26.100Z,58.47
2019-01-24T13:17:54.677Z,54.53
2019-01-24T13:20:23.165Z,53.60
2019-01-24T13:22:51.709Z,54.07
2019-01-24T13:25:25.603Z,51.37
2019-01-24T13:27:54.062Z,67.50
2019-01-24T13:30:24.692Z,51.03
2019-01-24T13:32:53.327Z,55.12
2019-01-24T13:35:21.853Z,52.70
2019-01-24T13:37:50.327Z,51.43
2019-01-24T13:40:24.557Z,47.83
2019-01-24T13:42:53.363Z,54.73
2019-01-24T13:45:24.261Z,50.00
2019-01-24T13:47:52.840Z,49.17
2019-01-24T13:50:21.409Z,58.90
2019-01-24T13:52:49.961Z,45.77
2019-01-24T13:55:18.745Z,54.83
2019-01-24T13:57:47.224Z,48.20
2019-01-24T14:00:21.682Z,56.77
2019-01-24T14:02:53.502Z,55.87
2019-01-24T14:05:21.986Z,47.03
2019-01-24T14:07:50.467Z,46.20
2019-01-24T14:10:19.294Z,50.47
2019-01-24T14:12:47.776Z,54.70
2019-01-24T14:15:18.631Z,53.63
2019-01-24T14:17:47.113Z,46.57
2019-01-24T14:20:18.367Z,51.27
2019-01-24T14:22:47.090Z,52.27
2019-01-24T14:25:17.929Z,57.40
2019-01-24T14:27:46.670Z,53.40
2019-01-24T14:30:23.525Z,43.70
2019-01-24T14:32:52.335Z,40.97
2019-01-24T14:35:21.276Z,50.57
2019-01-24T14:37:49.923Z,46.93
2019-01-24T14:40:19.060Z,45.00
2019-01-24T14:42:47.597Z,50.30
2019-01-24T14:45:21.037Z,51.63
2019-01-24T14:47:49.580Z,50.20
2019-01-24T14:50:20.234Z,48.47
2019-01-24T14:52:48.703Z,59.30
2019-01-24T14:55:17.288Z,44.80
2019-01-24T14:57:45.837Z,57.97
2019-01-24T15:00:26.099Z,51.00
2019-01-24T15:02:54.746Z,60.07
2019-01-24T15:05:23.407Z,52.27
2019-01-24T15:07:51.884Z,53.90
2019-01-24T15:10:20.561Z,53.93
2019-01-24T15:12:49.367Z,54.20
2019-01-24T15:15:22.480Z,52.67
2019-01-24T15:17:51.121Z,46.40
2019-01-24T15:20:22.482Z,46.90
2019-01-24T15:22:50.965Z,50.17
2019-01-24T15:25:21.193Z,51.47
2019-01-24T15:27:49.738Z,54.43
2019-01-24T15:30:30.797Z,47.77
2019-01-24T15:32:59.342Z,56.30
2019-01-24T15:35:27.839Z,57.63
2019-01-24T15:37:56.438Z,60.23
2019-01-24T15:40:30.174Z,49.37
2019-01-24T15:42:58.647Z,58.17
2019-01-24T15:45:27.378Z,53.17
2019-01-24T15:47:56.030Z,55.97
2019-01-24T15:50:25.358Z,54.23
2019-01-24T15:52:54.009Z,55.17
2019-01-24T15:55:22.669Z,49.60
2019-01-24T15:57:51.143Z,66.33
2019-01-24T16:00:22.356Z,44.23
2019-01-24T16:02:50.822Z,53.50
2019-01-24T16:05:19.396Z,46.93
2019-01-24T16:07:47.998Z,48.03
2019-01-24T16:10:19.208Z,48.90
2019-01-24T16:12:47.822Z,47.33
2019-01-24T16:15:19.420Z,53.23
2019-01-24T16:17:47.885Z,53.03
2019-01-24T16:20:19.260Z,52.57
2019-01-24T16:22:47.742Z,52.40
2019-01-24T16:25:18.478Z,49.83
2019-01-24T16:27:46.951Z,49.97
2019-01-24T16:30:24.053Z,55.43
2019-01-24T16:32:52.684Z,50.03
2019-01-24T16:35:22.061Z,55.67
2019-01-24T16:37:50.570Z,47.93
2019-01-24T16:40:21.651Z,54.07
2019-01-24T16:42:50.292Z,37.00
2019-01-24T16:45:21.277Z,41.00
2019-01-24T16:47:49.826Z,42.37
2019-01-24T16:50:23.185Z,56.63
2019-01-24T16:52:51.825Z,47.80
2019-01-24T16:55:20.863Z,48.33
2019-01-24T16:57:50.677Z,52.13
2019-01-24T17:00:27.757Z,49.63
2019-01-24T17:02:56.417Z,45.03
2019-01-24T17:05:25.136Z,56.30
2019-01-24T17:07:53.786Z,53.80
2019-01-24T17:10:24.420Z,51.90
2019-01-24T17:12:53.086Z,60.37
2019-01-24T17:15:21.930Z,54.27
2019-01-24T17:17:50.411Z,66.93
2019-01-24T17:20:30.355Z,52.05
2019-01-24T17:22:58.895Z,55.40
2019-01-24T17:25:33.812Z,68.33
2019-01-24T17:28:02.300Z,54.03
2019-01-24T17:30:32.343Z,57.07
2019-01-24T17:33:01.183Z,59.73
2019-01-24T17:35:30.022Z,51.43
2019-01-24T17:37:58.558Z,57.73
2019-01-24T17:40:29.951Z,62.20
2019-01-24T17:42:58.510Z,50.77
2019-01-24T17:45:27.545Z,50.67
2019-01-24T17:47:56.013Z,64.60
2019-01-24T17:50:24.599Z,58.57
2019-01-24T17:52:53.239Z,61.93
2019-01-24T17:55:39.897Z,62.20
2019-01-24T17:58:09.760Z,58.90
2019-01-24T18:00:42.597Z,62.40
2019-01-24T18:03:11.097Z,57.93
2019-01-24T18:05:39.563Z,73.23
2019-01-24T18:08:08.241Z,63.50
2019-01-24T18:10:36.704Z,54.57
2019-01-24T18:13:05.634Z,62.50
2019-01-24T18:15:35.841Z,62.53
2019-01-24T18:18:07.012Z,64.33
2019-01-24T18:20:37.701Z,65.33
2019-01-24T18:23:08.141Z,67.43
2019-01-24T18:25:36.756Z,68.33
2019-01-24T18:28:07.386Z,66.90
2019-01-24T18:30:35.936Z,65.13
2019-01-24T18:33:04.971Z,59.13
2019-01-24T18:35:33.447Z,65.43
2019-01-24T18:38:01.947Z,65.07
2019-01-24T18:40:31.764Z,63.10
2019-01-24T18:43:00.528Z,62.40
2019-01-24T18:45:34.577Z,60.10
2019-01-24T18:48:03.130Z,62.53
2019-01-24T18:50:31.846Z,58.37
2019-01-24T18:53:00.417Z,52.57
2019-01-24T18:55:28.907Z,50.50
2019-01-24T18:57:57.395Z,55.50
2019-01-24T19:00:28.142Z,55.30
2019-01-24T19:02:56.704Z,49.63
2019-01-24T19:05:25.184Z,50.57
2019-01-24T19:07:53.749Z,55.13
2019-01-24T19:10:23.882Z,51.53
2019-01-24T19:12:52.413Z,53.70
2019-01-24T19:15:22.506Z,50.77
2019-01-24T19:17:51.079Z,59.67
2019-01-24T19:20:20.375Z,55.67
2019-01-24T19:22:49.010Z,53.67
2019-01-24T19:25:19.693Z,58.70
2019-01-24T19:27:48.264Z,50.90
2019-01-24T19:30:22.582Z,44.50
2019-01-24T19:32:51.136Z,53.43
2019-01-24T19:35:19.605Z,49.20
2019-01-24T19:37:48.532Z,50.83
2019-01-24T19:40:22.123Z,50.20
2019-01-24T19:42:50.644Z,41.83
2019-01-24T19:45:21.252Z,49.27
2019-01-24T19:47:49.818Z,51.13
2019-01-24T19:50:20.653Z,49.23
2019-01-24T19:52:49.273Z,58.60
2019-01-24T19:55:17.814Z,46.57
2019-01-24T19:57:46.748Z,51.53
2019-01-24T20:00:18.095Z,55.60
2019-01-24T20:02:46.867Z,57.70
2019-01-24T20:05:17.688Z,50.87
2019-01-24T20:07:46.642Z,49.53
2019-01-24T20:10:18.186Z,51.67
2019-01-24T20:12:46.680Z,47.33
2019-01-24T20:15:20.276Z,51.40
2019-01-24T20:17:49.628Z,53.97
2019-01-24T20:20:19.238Z,46.37
2019-01-24T20:22:48.565Z,51.77
2019-01-24T20:25:19.478Z,46.33
2019-01-24T20:27:48.153Z,47.10
2019-01-24T20:30:19.517Z,47.70
2019-01-24T20:32:48.205Z,52.67
2019-01-24T20:35:19.729Z,49.07
2019-01-24T20:37:48.233Z,42.50
2019-01-24T20:40:17.345Z,47.93
2019-01-24T20:42:45.893Z,46.80
2019-01-24T20:45:14.431Z,46.17
2019-01-24T20:47:43.105Z,46.17
2019-01-24T20:50:16.406Z,43.10
2019-01-24T20:52:44.905Z,40.37
2019-01-24T20:55:15.533Z,42.30
2019-01-24T20:57:44.270Z,44.00
2019-01-24T21:00:17.442Z,46.17
2019-01-24T21:02:46.412Z,41.77
2019-01-24T21:05:17.821Z,44.20
2019-01-24T21:07:46.473Z,44.20
2019-01-24T21:10:17.821Z,42.73
2019-01-24T21:12:46.353Z,45.07
2019-01-24T21:15:17.194Z,42.07
2019-01-24T21:17:45.707Z,48.60
2019-01-24T21:20:19.875Z,47.17
2019-01-24T21:22:48.348Z,41.50
2019-01-24T21:25:18.988Z,43.67
2019-01-24T21:27:47.468Z,39.93
2019-01-24T21:30:24.796Z,49.57
2019-01-24T21:32:53.336Z,51.60
2019-01-24T21:35:21.913Z,48.33
2019-01-24T21:37:51.764Z,45.00
2019-01-24T21:40:24.302Z,44.87
2019-01-24T21:42:52.764Z,44.87
2019-01-24T21:45:26.607Z,41.23
2019-01-24T21:47:55.080Z,49.07
2019-01-24T21:50:28.822Z,39.13
2019-01-24T21:52:57.303Z,35.80
2019-01-24T21:55:25.875Z,43.50
2019-01-24T21:57:54.425Z,44.20
2019-01-24T22:00:28.006Z,47.87
2019-01-24T22:02:56.482Z,44.77
2019-01-24T22:05:25.592Z,50.37
2019-01-24T22:07:54.227Z,39.57
2019-01-24T22:10:28.348Z,37.33
2019-01-24T22:12:56.819Z,41.03
2019-01-24T22:15:29.966Z,45.10
2019-01-24T22:17:59.191Z,44.23
2019-01-24T22:20:27.762Z,39.40
2019-01-24T22:22:56.241Z,45.37
2019-01-24T22:25:32.955Z,43.50
2019-01-24T22:28:01.425Z,44.73
2019-01-24T22:30:40.045Z,44.03
2019-01-24T22:33:08.647Z,44.37
2019-01-24T22:35:37.210Z,37.97
2019-01-24T22:38:06.922Z,50.37
2019-01-24T22:40:35.421Z,44.93
2019-01-24T22:43:04.354Z,41.27
2019-01-24T22:45:32.905Z,38.77
2019-01-24T22:48:01.371Z,44.17
2019-01-24T22:50:29.860Z,35.70
2019-01-24T22:52:58.335Z,44.03
2019-01-24T22:55:26.894Z,50.63
2019-01-24T22:57:55.371Z,43.93
2019-01-24T23:00:45.152Z,43.23
2019-01-24T23:03:13.875Z,44.73
2019-01-24T23:05:42.442Z,45.87
2019-01-24T23:08:10.912Z,46.70
2019-01-24T23:10:39.405Z,52.20
2019-01-24T23:13:07.951Z,43.73
2019-01-24T23:15:36.453Z,50.97
2019-01-24T23:18:05.488Z,55.60
2019-01-24T23:20:33.980Z,55.23
2019-01-24T23:23:02.448Z,52.13
2019-01-24T23:25:31.031Z,50.43
2019-01-24T23:27:59.508Z,43.30
2019-01-24T23:30:28.078Z,48.27
2019-01-24T23:32:56.550Z,50.70
2019-01-24T23:35:25.053Z,50.60
2019-01-24T23:37:53.528Z,52.07
2019-01-24T23:40:22.018Z,43.30
2019-01-24T23:42:50.500Z,52.97
2019-01-24T23:45:18.987Z,58.03
2019-01-24T23:47:47.622Z,51.43
2019-01-24T23:50:16.285Z,52.10
2019-01-24T23:52:44.769Z,51.90
2019-01-24T23:55:13.412Z,54.63
2019-01-24T23:57:41.890Z,59.87
